sensor_id;sensor_type;location;lat;lon;timestamp;P1;durP1;ratioP1;P2;durP2;ratioP2
8086;SDS011;4086;54.412;9.980;2023-01-30T00:01:03;24.23;;;12.90;;
8086;SDS011;4086;54.412;9.980;2023-01-30T00:03:31;25.07;;;13.53;;
8086;SDS011;4086;54.412;9.980;2023-01-30T00:05:58;21.50;;;12.43;;
8086;SDS011;4086;54.412;9.980;2023-01-30T00:08:26;26.53;;;12.70;;
8086;SDS011;4086;54.412;9.980;2023-01-30T00:10:52;26.10;;;13.33;;
8086;SDS011;4086;54.412;9.980;2023-01-30T00:13:18;21.47;;;12.10;;
8086;SDS011;4086;54.412;9.980;2023-01-30T00:15:46;25.23;;;12.80;;
8086;SDS011;4086;54.412;9.980;2023-01-30T00:18:13;16.93;;;11.97;;
8086;SDS011;4086;54.412;9.980;2023-01-30T00:20:39;21.17;;;12.70;;
8086;SDS011;4086;54.412;9.980;2023-01-30T00:23:06;19.83;;;12.23;;
8086;SDS011;4086;54.412;9.980;2023-01-30T00:25:33;23.50;;;12.90;;
8086;SDS011;4086;54.412;9.980;2023-01-30T00:28:00;23.17;;;12.23;;
8086;SDS011;4086;54.412;9.980;2023-01-30T00:30:26;19.23;;;12.10;;
8086;SDS011;4086;54.412;9.980;2023-01-30T00:32:53;23.47;;;12.10;;
8086;SDS011;4086;54.412;9.980;2023-01-30T00:35:20;21.00;;;11.00;;
8086;SDS011;4086;54.412;9.980;2023-01-30T00:37:52;20.60;;;11.30;;
8086;SDS011;4086;54.412;9.980;2023-01-30T00:40:19;22.00;;;11.53;;
8086;SDS011;4086;54.412;9.980;2023-01-30T00:42:46;23.47;;;11.13;;
8086;SDS011;4086;54.412;9.980;2023-01-30T00:45:30;18.77;;;11.60;;
8086;SDS011;4086;54.412;9.980;2023-01-30T00:48:14;22.83;;;12.00;;
8086;SDS011;4086;54.412;9.980;2023-01-30T00:50:40;18.57;;;9.93;;
8086;SDS011;4086;54.412;9.980;2023-01-30T00:53:10;19.77;;;10.53;;
8086;SDS011;4086;54.412;9.980;2023-01-30T00:55:36;20.57;;;10.23;;
8086;SDS011;4086;54.412;9.980;2023-01-30T00:58:04;20.60;;;9.57;;
8086;SDS011;4086;54.412;9.980;2023-01-30T01:00:31;20.57;;;10.97;;
8086;SDS011;4086;54.412;9.980;2023-01-30T01:02:58;21.63;;;10.83;;
8086;SDS011;4086;54.412;9.980;2023-01-30T01:05:24;22.07;;;10.80;;
8086;SDS011;4086;54.412;9.980;2023-01-30T01:07:51;20.50;;;9.53;;
8086;SDS011;4086;54.412;9.980;2023-01-30T01:10:17;18.97;;;9.13;;
8086;SDS011;4086;54.412;9.980;2023-01-30T01:12:44;19.83;;;9.00;;
8086;SDS011;4086;54.412;9.980;2023-01-30T01:15:11;24.20;;;8.43;;
8086;SDS011;4086;54.412;9.980;2023-01-30T01:17:38;17.87;;;8.30;;
8086;SDS011;4086;54.412;9.980;2023-01-30T01:20:06;16.47;;;7.83;;
8086;SDS011;4086;54.412;9.980;2023-01-30T01:22:33;25.17;;;7.80;;
8086;SDS011;4086;54.412;9.980;2023-01-30T01:25:00;16.30;;;6.53;;
8086;SDS011;4086;54.412;9.980;2023-01-30T01:27:27;13.50;;;6.77;;
8086;SDS011;4086;54.412;9.980;2023-01-30T01:29:54;13.93;;;6.57;;
8086;SDS011;4086;54.412;9.980;2023-01-30T01:32:22;12.43;;;7.00;;
8086;SDS011;4086;54.412;9.980;2023-01-30T01:34:48;12.97;;;6.73;;
8086;SDS011;4086;54.412;9.980;2023-01-30T01:37:15;11.87;;;6.43;;
8086;SDS011;4086;54.412;9.980;2023-01-30T01:39:41;15.23;;;6.47;;
8086;SDS011;4086;54.412;9.980;2023-01-30T01:42:25;13.40;;;6.23;;
8086;SDS011;4086;54.412;9.980;2023-01-30T01:44:59;15.47;;;5.33;;
8086;SDS011;4086;54.412;9.980;2023-01-30T01:47:30;14.23;;;6.43;;
8086;SDS011;4086;54.412;9.980;2023-01-30T01:49:58;10.63;;;6.00;;
8086;SDS011;4086;54.412;9.980;2023-01-30T01:52:25;9.30;;;4.83;;
8086;SDS011;4086;54.412;9.980;2023-01-30T01:54:52;9.80;;;5.00;;
8086;SDS011;4086;54.412;9.980;2023-01-30T01:57:21;12.57;;;5.00;;
8086;SDS011;4086;54.412;9.980;2023-01-30T01:59:50;9.60;;;4.60;;
8086;SDS011;4086;54.412;9.980;2023-01-30T02:02:18;9.53;;;4.00;;
8086;SDS011;4086;54.412;9.980;2023-01-30T02:04:47;9.60;;;4.37;;
8086;SDS011;4086;54.412;9.980;2023-01-30T02:07:27;10.93;;;4.43;;
8086;SDS011;4086;54.412;9.980;2023-01-30T02:09:55;10.17;;;4.47;;
8086;SDS011;4086;54.412;9.980;2023-01-30T02:12:21;11.77;;;4.33;;
8086;SDS011;4086;54.412;9.980;2023-01-30T02:14:48;6.10;;;3.70;;
8086;SDS011;4086;54.412;9.980;2023-01-30T02:17:15;6.00;;;3.10;;
8086;SDS011;4086;54.412;9.980;2023-01-30T02:19:43;7.93;;;3.03;;
8086;SDS011;4086;54.412;9.980;2023-01-30T02:22:21;5.83;;;3.00;;
8086;SDS011;4086;54.412;9.980;2023-01-30T02:25:09;4.77;;;2.60;;
8086;SDS011;4086;54.412;9.980;2023-01-30T02:27:53;2.13;;;1.93;;
8086;SDS011;4086;54.412;9.980;2023-01-30T02:30:43;4.47;;;1.93;;
8086;SDS011;4086;54.412;9.980;2023-01-30T02:33:23;6.50;;;2.07;;
8086;SDS011;4086;54.412;9.980;2023-01-30T02:35:56;6.03;;;1.30;;
8086;SDS011;4086;54.412;9.980;2023-01-30T02:38:30;6.63;;;1.73;;
8086;SDS011;4086;54.412;9.980;2023-01-30T02:41:01;5.80;;;1.33;;
8086;SDS011;4086;54.412;9.980;2023-01-30T02:43:38;5.20;;;1.07;;
8086;SDS011;4086;54.412;9.980;2023-01-30T02:46:10;8.07;;;1.37;;
8086;SDS011;4086;54.412;9.980;2023-01-30T02:48:38;6.83;;;2.17;;
8086;SDS011;4086;54.412;9.980;2023-01-30T02:51:08;7.17;;;1.87;;
8086;SDS011;4086;54.412;9.980;2023-01-30T02:53:37;7.87;;;1.57;;
8086;SDS011;4086;54.412;9.980;2023-01-30T02:56:04;8.40;;;1.50;;
8086;SDS011;4086;54.412;9.980;2023-01-30T02:58:33;7.70;;;1.63;;
8086;SDS011;4086;54.412;9.980;2023-01-30T03:01:13;11.70;;;2.10;;
8086;SDS011;4086;54.412;9.980;2023-01-30T03:04:01;5.80;;;1.53;;
8086;SDS011;4086;54.412;9.980;2023-01-30T03:06:38;7.07;;;1.77;;
8086;SDS011;4086;54.412;9.980;2023-01-30T03:09:13;9.90;;;1.50;;
8086;SDS011;4086;54.412;9.980;2023-01-30T03:11:43;10.63;;;1.73;;
8086;SDS011;4086;54.412;9.980;2023-01-30T03:14:13;11.33;;;2.33;;
8086;SDS011;4086;54.412;9.980;2023-01-30T03:16:46;11.37;;;1.70;;
8086;SDS011;4086;54.412;9.980;2023-01-30T03:19:13;11.30;;;2.20;;
8086;SDS011;4086;54.412;9.980;2023-01-30T03:21:40;5.83;;;1.63;;
8086;SDS011;4086;54.412;9.980;2023-01-30T03:24:08;8.87;;;1.93;;
8086;SDS011;4086;54.412;9.980;2023-01-30T03:26:35;9.33;;;1.83;;
8086;SDS011;4086;54.412;9.980;2023-01-30T03:29:02;9.67;;;1.87;;
8086;SDS011;4086;54.412;9.980;2023-01-30T03:31:29;12.23;;;1.83;;
8086;SDS011;4086;54.412;9.980;2023-01-30T03:33:57;11.67;;;1.73;;
8086;SDS011;4086;54.412;9.980;2023-01-30T03:36:23;6.40;;;1.83;;
8086;SDS011;4086;54.412;9.980;2023-01-30T03:38:49;9.90;;;2.87;;
8086;SDS011;4086;54.412;9.980;2023-01-30T03:41:16;9.37;;;2.10;;
8086;SDS011;4086;54.412;9.980;2023-01-30T03:43:43;6.23;;;1.90;;
8086;SDS011;4086;54.412;9.980;2023-01-30T03:46:09;7.33;;;1.60;;
8086;SDS011;4086;54.412;9.980;2023-01-30T03:48:35;12.17;;;2.37;;
8086;SDS011;4086;54.412;9.980;2023-01-30T03:51:03;12.57;;;2.57;;
8086;SDS011;4086;54.412;9.980;2023-01-30T03:53:31;9.37;;;2.13;;
8086;SDS011;4086;54.412;9.980;2023-01-30T03:55:57;12.70;;;2.10;;
8086;SDS011;4086;54.412;9.980;2023-01-30T03:58:23;16.13;;;2.73;;
8086;SDS011;4086;54.412;9.980;2023-01-30T04:00:50;8.87;;;1.90;;
8086;SDS011;4086;54.412;9.980;2023-01-30T04:03:16;13.37;;;2.83;;
8086;SDS011;4086;54.412;9.980;2023-01-30T04:05:43;10.90;;;2.50;;
8086;SDS011;4086;54.412;9.980;2023-01-30T04:08:10;15.33;;;1.97;;
8086;SDS011;4086;54.412;9.980;2023-01-30T04:10:37;11.37;;;3.13;;
8086;SDS011;4086;54.412;9.980;2023-01-30T04:13:03;14.30;;;2.40;;
8086;SDS011;4086;54.412;9.980;2023-01-30T04:15:30;14.63;;;2.47;;
8086;SDS011;4086;54.412;9.980;2023-01-30T04:17:56;9.73;;;2.00;;
8086;SDS011;4086;54.412;9.980;2023-01-30T04:20:23;18.10;;;3.97;;
8086;SDS011;4086;54.412;9.980;2023-01-30T04:22:49;17.50;;;2.77;;
8086;SDS011;4086;54.412;9.980;2023-01-30T04:25:17;20.23;;;2.47;;
8086;SDS011;4086;54.412;9.980;2023-01-30T04:27:43;16.57;;;3.30;;
8086;SDS011;4086;54.412;9.980;2023-01-30T04:30:10;22.00;;;2.43;;
8086;SDS011;4086;54.412;9.980;2023-01-30T04:32:37;11.27;;;1.93;;
8086;SDS011;4086;54.412;9.980;2023-01-30T04:35:03;14.73;;;2.10;;
8086;SDS011;4086;54.412;9.980;2023-01-30T04:37:30;14.27;;;2.87;;
8086;SDS011;4086;54.412;9.980;2023-01-30T04:39:56;24.27;;;3.30;;
8086;SDS011;4086;54.412;9.980;2023-01-30T04:42:24;14.77;;;2.63;;
8086;SDS011;4086;54.412;9.980;2023-01-30T04:44:51;17.37;;;2.60;;
8086;SDS011;4086;54.412;9.980;2023-01-30T04:47:17;12.07;;;2.37;;
8086;SDS011;4086;54.412;9.980;2023-01-30T04:49:43;16.93;;;3.63;;
8086;SDS011;4086;54.412;9.980;2023-01-30T04:52:10;11.40;;;2.20;;
8086;SDS011;4086;54.412;9.980;2023-01-30T04:54:36;16.40;;;2.83;;
8086;SDS011;4086;54.412;9.980;2023-01-30T04:57:03;15.47;;;3.17;;
8086;SDS011;4086;54.412;9.980;2023-01-30T04:59:30;19.60;;;2.80;;
8086;SDS011;4086;54.412;9.980;2023-01-30T05:01:57;15.47;;;2.30;;
8086;SDS011;4086;54.412;9.980;2023-01-30T05:04:23;24.23;;;3.50;;
8086;SDS011;4086;54.412;9.980;2023-01-30T05:06:49;20.87;;;3.13;;
8086;SDS011;4086;54.412;9.980;2023-01-30T05:09:16;14.27;;;3.00;;
8086;SDS011;4086;54.412;9.980;2023-01-30T05:11:42;17.50;;;3.10;;
8086;SDS011;4086;54.412;9.980;2023-01-30T05:14:09;20.60;;;2.83;;
8086;SDS011;4086;54.412;9.980;2023-01-30T05:16:36;20.87;;;3.23;;
8086;SDS011;4086;54.412;9.980;2023-01-30T05:19:03;19.33;;;2.80;;
8086;SDS011;4086;54.412;9.980;2023-01-30T05:21:29;14.13;;;3.00;;
8086;SDS011;4086;54.412;9.980;2023-01-30T05:23:56;22.00;;;2.87;;
8086;SDS011;4086;54.412;9.980;2023-01-30T05:26:22;20.23;;;2.50;;
8086;SDS011;4086;54.412;9.980;2023-01-30T05:28:50;16.87;;;3.20;;
8086;SDS011;4086;54.412;9.980;2023-01-30T05:31:17;23.10;;;3.93;;
8086;SDS011;4086;54.412;9.980;2023-01-30T05:33:45;20.67;;;4.10;;
8086;SDS011;4086;54.412;9.980;2023-01-30T05:36:13;17.97;;;2.93;;
8086;SDS011;4086;54.412;9.980;2023-01-30T05:38:41;24.13;;;3.40;;
8086;SDS011;4086;54.412;9.980;2023-01-30T05:41:07;18.70;;;3.33;;
8086;SDS011;4086;54.412;9.980;2023-01-30T05:43:35;21.23;;;3.20;;
8086;SDS011;4086;54.412;9.980;2023-01-30T05:46:02;19.67;;;2.97;;
8086;SDS011;4086;54.412;9.980;2023-01-30T05:48:30;19.57;;;3.03;;
8086;SDS011;4086;54.412;9.980;2023-01-30T05:50:58;19.60;;;3.20;;
8086;SDS011;4086;54.412;9.980;2023-01-30T05:53:26;22.23;;;3.37;;
8086;SDS011;4086;54.412;9.980;2023-01-30T05:55:53;14.90;;;2.97;;
8086;SDS011;4086;54.412;9.980;2023-01-30T05:58:20;18.60;;;3.30;;
8086;SDS011;4086;54.412;9.980;2023-01-30T06:00:47;10.83;;;3.10;;
8086;SDS011;4086;54.412;9.980;2023-01-30T06:03:13;19.30;;;3.03;;
8086;SDS011;4086;54.412;9.980;2023-01-30T06:05:39;18.70;;;3.13;;
8086;SDS011;4086;54.412;9.980;2023-01-30T06:08:07;19.00;;;2.93;;
8086;SDS011;4086;54.412;9.980;2023-01-30T06:10:34;24.23;;;3.10;;
8086;SDS011;4086;54.412;9.980;2023-01-30T06:13:00;21.13;;;3.50;;
8086;SDS011;4086;54.412;9.980;2023-01-30T06:15:27;19.57;;;2.80;;
8086;SDS011;4086;54.412;9.980;2023-01-30T06:17:53;20.47;;;3.30;;
8086;SDS011;4086;54.412;9.980;2023-01-30T06:20:20;24.33;;;3.80;;
8086;SDS011;4086;54.412;9.980;2023-01-30T06:22:46;22.60;;;3.57;;
8086;SDS011;4086;54.412;9.980;2023-01-30T06:25:14;13.20;;;2.57;;
8086;SDS011;4086;54.412;9.980;2023-01-30T06:27:41;21.30;;;3.03;;
8086;SDS011;4086;54.412;9.980;2023-01-30T06:30:08;24.50;;;3.37;;
8086;SDS011;4086;54.412;9.980;2023-01-30T06:32:35;26.03;;;3.40;;
8086;SDS011;4086;54.412;9.980;2023-01-30T06:35:02;16.40;;;2.40;;
8086;SDS011;4086;54.412;9.980;2023-01-30T06:37:29;16.93;;;2.97;;
8086;SDS011;4086;54.412;9.980;2023-01-30T06:39:55;15.43;;;2.60;;
8086;SDS011;4086;54.412;9.980;2023-01-30T06:42:23;24.33;;;4.17;;
8086;SDS011;4086;54.412;9.980;2023-01-30T06:44:49;14.50;;;2.60;;
8086;SDS011;4086;54.412;9.980;2023-01-30T06:47:16;10.67;;;2.83;;
8086;SDS011;4086;54.412;9.980;2023-01-30T06:49:42;23.90;;;4.00;;
8086;SDS011;4086;54.412;9.980;2023-01-30T06:52:08;16.10;;;2.77;;
8086;SDS011;4086;54.412;9.980;2023-01-30T06:54:35;20.67;;;3.13;;
8086;SDS011;4086;54.412;9.980;2023-01-30T06:57:01;13.60;;;2.67;;
8086;SDS011;4086;54.412;9.980;2023-01-30T06:59:29;14.83;;;2.60;;
8086;SDS011;4086;54.412;9.980;2023-01-30T07:01:56;21.57;;;2.60;;
8086;SDS011;4086;54.412;9.980;2023-01-30T07:04:22;21.20;;;2.70;;
8086;SDS011;4086;54.412;9.980;2023-01-30T07:06:49;14.63;;;3.60;;
8086;SDS011;4086;54.412;9.980;2023-01-30T07:09:15;21.33;;;3.23;;
8086;SDS011;4086;54.412;9.980;2023-01-30T07:11:41;16.67;;;3.30;;
8086;SDS011;4086;54.412;9.980;2023-01-30T07:14:08;11.63;;;2.90;;
8086;SDS011;4086;54.412;9.980;2023-01-30T07:16:35;19.50;;;2.60;;
8086;SDS011;4086;54.412;9.980;2023-01-30T07:19:02;16.20;;;2.93;;
8086;SDS011;4086;54.412;9.980;2023-01-30T07:21:28;13.47;;;2.57;;
8086;SDS011;4086;54.412;9.980;2023-01-30T07:23:55;21.43;;;3.50;;
8086;SDS011;4086;54.412;9.980;2023-01-30T07:26:21;16.13;;;2.60;;
8086;SDS011;4086;54.412;9.980;2023-01-30T07:28:48;18.63;;;2.87;;
8086;SDS011;4086;54.412;9.980;2023-01-30T07:31:15;20.57;;;3.63;;
8086;SDS011;4086;54.412;9.980;2023-01-30T07:33:42;23.40;;;4.00;;
8086;SDS011;4086;54.412;9.980;2023-01-30T07:36:09;20.77;;;2.80;;
8086;SDS011;4086;54.412;9.980;2023-01-30T07:38:35;21.13;;;4.30;;
8086;SDS011;4086;54.412;9.980;2023-01-30T07:41:02;19.67;;;3.40;;
8086;SDS011;4086;54.412;9.980;2023-01-30T07:43:28;19.80;;;2.77;;
8086;SDS011;4086;54.412;9.980;2023-01-30T07:45:55;13.63;;;3.10;;
8086;SDS011;4086;54.412;9.980;2023-01-30T07:48:21;19.33;;;3.27;;
8086;SDS011;4086;54.412;9.980;2023-01-30T07:50:49;20.53;;;3.20;;
8086;SDS011;4086;54.412;9.980;2023-01-30T07:53:16;19.70;;;3.90;;
8086;SDS011;4086;54.412;9.980;2023-01-30T07:55:43;17.77;;;3.13;;
8086;SDS011;4086;54.412;9.980;2023-01-30T07:58:10;21.13;;;3.23;;
8086;SDS011;4086;54.412;9.980;2023-01-30T08:00:38;24.70;;;3.83;;
8086;SDS011;4086;54.412;9.980;2023-01-30T08:03:04;21.27;;;4.17;;
8086;SDS011;4086;54.412;9.980;2023-01-30T08:05:31;21.77;;;3.93;;
8086;SDS011;4086;54.412;9.980;2023-01-30T08:07:58;20.87;;;3.13;;
8086;SDS011;4086;54.412;9.980;2023-01-30T08:10:25;13.00;;;2.43;;
8086;SDS011;4086;54.412;9.980;2023-01-30T08:12:52;19.50;;;3.50;;
8086;SDS011;4086;54.412;9.980;2023-01-30T08:15:18;14.70;;;2.83;;
8086;SDS011;4086;54.412;9.980;2023-01-30T08:17:51;9.07;;;2.33;;
8086;SDS011;4086;54.412;9.980;2023-01-30T08:20:18;10.50;;;1.60;;
8086;SDS011;4086;54.412;9.980;2023-01-30T08:22:45;6.87;;;2.17;;
8086;SDS011;4086;54.412;9.980;2023-01-30T08:25:12;5.80;;;1.60;;
8086;SDS011;4086;54.412;9.980;2023-01-30T08:27:39;4.00;;;1.43;;
8086;SDS011;4086;54.412;9.980;2023-01-30T08:30:06;1.37;;;0.90;;
8086;SDS011;4086;54.412;9.980;2023-01-30T08:32:33;7.37;;;1.13;;
8086;SDS011;4086;54.412;9.980;2023-01-30T08:34:59;6.17;;;1.10;;
8086;SDS011;4086;54.412;9.980;2023-01-30T08:37:26;4.97;;;1.23;;
8086;SDS011;4086;54.412;9.980;2023-01-30T08:39:52;5.20;;;1.80;;
8086;SDS011;4086;54.412;9.980;2023-01-30T08:42:20;4.57;;;1.10;;
8086;SDS011;4086;54.412;9.980;2023-01-30T08:44:46;5.50;;;1.03;;
8086;SDS011;4086;54.412;9.980;2023-01-30T08:47:13;6.37;;;1.50;;
8086;SDS011;4086;54.412;9.980;2023-01-30T08:49:39;5.50;;;1.10;;
8086;SDS011;4086;54.412;9.980;2023-01-30T08:52:05;6.47;;;2.17;;
8086;SDS011;4086;54.412;9.980;2023-01-30T08:54:32;3.83;;;1.13;;
8086;SDS011;4086;54.412;9.980;2023-01-30T08:56:58;4.90;;;1.17;;
8086;SDS011;4086;54.412;9.980;2023-01-30T08:59:26;9.37;;;2.17;;
8086;SDS011;4086;54.412;9.980;2023-01-30T09:01:52;8.70;;;1.60;;
8086;SDS011;4086;54.412;9.980;2023-01-30T09:04:19;6.43;;;1.37;;
8086;SDS011;4086;54.412;9.980;2023-01-30T09:06:47;8.20;;;2.00;;
8086;SDS011;4086;54.412;9.980;2023-01-30T09:09:13;9.87;;;1.90;;
8086;SDS011;4086;54.412;9.980;2023-01-30T09:11:39;16.97;;;2.63;;
8086;SDS011;4086;54.412;9.980;2023-01-30T09:14:06;14.20;;;2.17;;
8086;SDS011;4086;54.412;9.980;2023-01-30T09:16:33;9.03;;;2.03;;
8086;SDS011;4086;54.412;9.980;2023-01-30T09:19:00;18.43;;;3.30;;
8086;SDS011;4086;54.412;9.980;2023-01-30T09:21:26;14.47;;;2.43;;
8086;SDS011;4086;54.412;9.980;2023-01-30T09:23:54;19.27;;;3.40;;
8086;SDS011;4086;54.412;9.980;2023-01-30T09:26:20;19.87;;;4.03;;
8086;SDS011;4086;54.412;9.980;2023-01-30T09:28:47;9.67;;;2.03;;
8086;SDS011;4086;54.412;9.980;2023-01-30T09:31:13;18.17;;;2.83;;
8086;SDS011;4086;54.412;9.980;2023-01-30T09:33:41;19.00;;;2.90;;
8086;SDS011;4086;54.412;9.980;2023-01-30T09:36:08;14.67;;;2.30;;
8086;SDS011;4086;54.412;9.980;2023-01-30T09:38:34;13.67;;;2.83;;
8086;SDS011;4086;54.412;9.980;2023-01-30T09:41:05;12.87;;;3.23;;
8086;SDS011;4086;54.412;9.980;2023-01-30T09:43:42;14.87;;;2.73;;
8086;SDS011;4086;54.412;9.980;2023-01-30T09:46:17;14.50;;;2.93;;
8086;SDS011;4086;54.412;9.980;2023-01-30T09:48:54;13.33;;;2.87;;
8086;SDS011;4086;54.412;9.980;2023-01-30T09:51:30;11.10;;;2.23;;
8086;SDS011;4086;54.412;9.980;2023-01-30T09:54:18;12.37;;;2.93;;
8086;SDS011;4086;54.412;9.980;2023-01-30T09:56:52;13.03;;;2.10;;
8086;SDS011;4086;54.412;9.980;2023-01-30T09:59:24;15.60;;;2.47;;
8086;SDS011;4086;54.412;9.980;2023-01-30T10:01:57;11.60;;;2.10;;
8086;SDS011;4086;54.412;9.980;2023-01-30T10:04:28;15.77;;;2.50;;
8086;SDS011;4086;54.412;9.980;2023-01-30T10:06:59;9.90;;;1.80;;
8086;SDS011;4086;54.412;9.980;2023-01-30T10:09:32;12.63;;;2.20;;
8086;SDS011;4086;54.412;9.980;2023-01-30T10:12:09;9.60;;;2.43;;
8086;SDS011;4086;54.412;9.980;2023-01-30T10:14:45;1.97;;;1.13;;
8086;SDS011;4086;54.412;9.980;2023-01-30T10:17:31;5.07;;;1.10;;
8086;SDS011;4086;54.412;9.980;2023-01-30T10:22:57;6.60;;;1.40;;
8086;SDS011;4086;54.412;9.980;2023-01-30T10:25:29;4.77;;;1.63;;
8086;SDS011;4086;54.412;9.980;2023-01-30T10:27:58;7.53;;;1.33;;
8086;SDS011;4086;54.412;9.980;2023-01-30T10:30:27;5.83;;;1.47;;
8086;SDS011;4086;54.412;9.980;2023-01-30T10:32:55;5.60;;;1.20;;
8086;SDS011;4086;54.412;9.980;2023-01-30T10:35:28;7.87;;;1.60;;
8086;SDS011;4086;54.412;9.980;2023-01-30T10:37:57;4.50;;;1.10;;
8086;SDS011;4086;54.412;9.980;2023-01-30T10:40:27;8.53;;;1.27;;
8086;SDS011;4086;54.412;9.980;2023-01-30T10:42:57;9.97;;;1.90;;
8086;SDS011;4086;54.412;9.980;2023-01-30T10:45:29;13.17;;;2.03;;
8086;SDS011;4086;54.412;9.980;2023-01-30T10:48:00;10.63;;;2.07;;
8086;SDS011;4086;54.412;9.980;2023-01-30T10:50:40;15.50;;;2.93;;
8086;SDS011;4086;54.412;9.980;2023-01-30T10:53:13;10.47;;;1.97;;
8086;SDS011;4086;54.412;9.980;2023-01-30T10:55:43;13.93;;;2.80;;
8086;SDS011;4086;54.412;9.980;2023-01-30T10:58:14;10.17;;;2.30;;
8086;SDS011;4086;54.412;9.980;2023-01-30T11:00:45;10.80;;;1.90;;
8086;SDS011;4086;54.412;9.980;2023-01-30T11:03:19;12.97;;;2.43;;
8086;SDS011;4086;54.412;9.980;2023-01-30T11:05:49;15.70;;;3.10;;
8086;SDS011;4086;54.412;9.980;2023-01-30T11:08:21;7.13;;;1.50;;
8086;SDS011;4086;54.412;9.980;2023-01-30T11:10:48;14.37;;;2.03;;
8086;SDS011;4086;54.412;9.980;2023-01-30T11:13:16;11.47;;;1.80;;
8086;SDS011;4086;54.412;9.980;2023-01-30T11:15:44;12.73;;;2.03;;
8086;SDS011;4086;54.412;9.980;2023-01-30T11:18:12;13.10;;;2.00;;
8086;SDS011;4086;54.412;9.980;2023-01-30T11:20:40;6.33;;;1.40;;
8086;SDS011;4086;54.412;9.980;2023-01-30T11:23:21;10.10;;;1.83;;
8086;SDS011;4086;54.412;9.980;2023-01-30T11:25:49;12.80;;;3.07;;
8086;SDS011;4086;54.412;9.980;2023-01-30T11:28:16;10.50;;;2.10;;
8086;SDS011;4086;54.412;9.980;2023-01-30T11:30:43;7.30;;;1.30;;
8086;SDS011;4086;54.412;9.980;2023-01-30T11:33:15;11.97;;;3.27;;
8086;SDS011;4086;54.412;9.980;2023-01-30T11:35:43;10.70;;;2.23;;
8086;SDS011;4086;54.412;9.980;2023-01-30T11:38:21;12.27;;;2.03;;
8086;SDS011;4086;54.412;9.980;2023-01-30T11:40:49;12.23;;;2.30;;
8086;SDS011;4086;54.412;9.980;2023-01-30T11:43:27;8.07;;;1.67;;
8086;SDS011;4086;54.412;9.980;2023-01-30T11:45:53;19.23;;;2.50;;
8086;SDS011;4086;54.412;9.980;2023-01-30T11:48:20;9.17;;;1.93;;
8086;SDS011;4086;54.412;9.980;2023-01-30T11:50:49;8.23;;;2.40;;
8086;SDS011;4086;54.412;9.980;2023-01-30T11:53:36;5.87;;;1.73;;
8086;SDS011;4086;54.412;9.980;2023-01-30T11:56:04;6.87;;;2.03;;
8086;SDS011;4086;54.412;9.980;2023-01-30T11:58:34;13.83;;;2.70;;
8086;SDS011;4086;54.412;9.980;2023-01-30T12:01:03;6.50;;;1.67;;
8086;SDS011;4086;54.412;9.980;2023-01-30T12:03:30;5.57;;;1.47;;
8086;SDS011;4086;54.412;9.980;2023-01-30T12:05:58;13.23;;;2.03;;
8086;SDS011;4086;54.412;9.980;2023-01-30T12:08:28;5.97;;;1.40;;
8086;SDS011;4086;54.412;9.980;2023-01-30T12:10:58;9.70;;;1.53;;
8086;SDS011;4086;54.412;9.980;2023-01-30T12:13:28;8.67;;;1.50;;
8086;SDS011;4086;54.412;9.980;2023-01-30T12:16:01;8.73;;;1.27;;
8086;SDS011;4086;54.412;9.980;2023-01-30T12:18:37;10.80;;;1.87;;
8086;SDS011;4086;54.412;9.980;2023-01-30T12:21:09;6.50;;;1.73;;
8086;SDS011;4086;54.412;9.980;2023-01-30T12:23:42;4.80;;;1.63;;
8086;SDS011;4086;54.412;9.980;2023-01-30T12:26:11;9.93;;;1.60;;
8086;SDS011;4086;54.412;9.980;2023-01-30T12:28:42;5.30;;;1.70;;
8086;SDS011;4086;54.412;9.980;2023-01-30T12:31:12;9.00;;;2.03;;
8086;SDS011;4086;54.412;9.980;2023-01-30T12:33:43;11.90;;;2.23;;
8086;SDS011;4086;54.412;9.980;2023-01-30T12:36:12;9.10;;;2.07;;
8086;SDS011;4086;54.412;9.980;2023-01-30T12:38:50;9.27;;;1.47;;
8086;SDS011;4086;54.412;9.980;2023-01-30T12:41:27;12.00;;;2.33;;
8086;SDS011;4086;54.412;9.980;2023-01-30T12:44:12;9.63;;;1.80;;
8086;SDS011;4086;54.412;9.980;2023-01-30T12:46:50;7.07;;;2.33;;
8086;SDS011;4086;54.412;9.980;2023-01-30T12:49:35;13.20;;;1.93;;
8086;SDS011;4086;54.412;9.980;2023-01-30T12:52:11;9.90;;;2.00;;
8086;SDS011;4086;54.412;9.980;2023-01-30T12:54:48;9.50;;;1.80;;
8086;SDS011;4086;54.412;9.980;2023-01-30T12:57:19;11.87;;;1.90;;
8086;SDS011;4086;54.412;9.980;2023-01-30T12:59:53;9.77;;;2.00;;
8086;SDS011;4086;54.412;9.980;2023-01-30T13:02:43;8.80;;;2.23;;
8086;SDS011;4086;54.412;9.980;2023-01-30T13:05:17;7.50;;;1.80;;
8086;SDS011;4086;54.412;9.980;2023-01-30T13:07:52;4.27;;;1.63;;
8086;SDS011;4086;54.412;9.980;2023-01-30T13:10:27;5.57;;;1.93;;
8086;SDS011;4086;54.412;9.980;2023-01-30T13:12:58;5.67;;;1.37;;
8086;SDS011;4086;54.412;9.980;2023-01-30T13:15:34;4.37;;;1.17;;
8086;SDS011;4086;54.412;9.980;2023-01-30T13:18:06;9.07;;;1.73;;
8086;SDS011;4086;54.412;9.980;2023-01-30T13:20:52;9.00;;;1.83;;
8086;SDS011;4086;54.412;9.980;2023-01-30T13:23:21;10.23;;;2.10;;
8086;SDS011;4086;54.412;9.980;2023-01-30T13:25:55;7.53;;;1.97;;
8086;SDS011;4086;54.412;9.980;2023-01-30T13:28:25;7.70;;;1.80;;
8086;SDS011;4086;54.412;9.980;2023-01-30T13:30:54;8.63;;;1.80;;
8086;SDS011;4086;54.412;9.980;2023-01-30T13:33:21;8.67;;;2.37;;
8086;SDS011;4086;54.412;9.980;2023-01-30T13:35:51;9.67;;;2.37;;
8086;SDS011;4086;54.412;9.980;2023-01-30T13:38:21;10.73;;;1.87;;
8086;SDS011;4086;54.412;9.980;2023-01-30T13:40:50;9.40;;;2.33;;
8086;SDS011;4086;54.412;9.980;2023-01-30T13:43:21;13.27;;;2.63;;
8086;SDS011;4086;54.412;9.980;2023-01-30T13:45:50;7.73;;;1.80;;
8086;SDS011;4086;54.412;9.980;2023-01-30T13:48:24;8.80;;;1.90;;
8086;SDS011;4086;54.412;9.980;2023-01-30T13:53:57;14.90;;;2.60;;
8086;SDS011;4086;54.412;9.980;2023-01-30T13:56:29;5.97;;;2.17;;
8086;SDS011;4086;54.412;9.980;2023-01-30T13:59:01;14.97;;;3.03;;
8086;SDS011;4086;54.412;9.980;2023-01-30T14:02:06;10.73;;;2.33;;
8086;SDS011;4086;54.412;9.980;2023-01-30T14:04:41;9.70;;;2.17;;
8086;SDS011;4086;54.412;9.980;2023-01-30T14:07:11;14.03;;;3.03;;
8086;SDS011;4086;54.412;9.980;2023-01-30T14:09:41;11.70;;;3.30;;
8086;SDS011;4086;54.412;9.980;2023-01-30T14:12:13;11.03;;;2.50;;
8086;SDS011;4086;54.412;9.980;2023-01-30T14:14:55;19.73;;;3.77;;
8086;SDS011;4086;54.412;9.980;2023-01-30T14:17:23;6.57;;;2.17;;
8086;SDS011;4086;54.412;9.980;2023-01-30T14:19:56;11.60;;;2.33;;
8086;SDS011;4086;54.412;9.980;2023-01-30T14:22:25;8.87;;;3.10;;
8086;SDS011;4086;54.412;9.980;2023-01-30T14:31:11;13.60;;;3.50;;
8086;SDS011;4086;54.412;9.980;2023-01-30T14:40:28;12.50;;;2.90;;
8086;SDS011;4086;54.412;9.980;2023-01-30T14:52:00;15.23;;;3.93;;
8086;SDS011;4086;54.412;9.980;2023-01-30T14:54:29;20.47;;;4.33;;
8086;SDS011;4086;54.412;9.980;2023-01-30T14:56:58;11.33;;;3.30;;
8086;SDS011;4086;54.412;9.980;2023-01-30T14:59:28;21.43;;;3.27;;
8086;SDS011;4086;54.412;9.980;2023-01-30T15:02:04;16.13;;;3.53;;
8086;SDS011;4086;54.412;9.980;2023-01-30T15:04:37;19.07;;;3.13;;
8086;SDS011;4086;54.412;9.980;2023-01-30T15:07:09;17.20;;;3.37;;
8086;SDS011;4086;54.412;9.980;2023-01-30T15:09:37;22.57;;;4.23;;
8086;SDS011;4086;54.412;9.980;2023-01-30T15:12:10;18.63;;;4.93;;
8086;SDS011;4086;54.412;9.980;2023-01-30T15:14:57;10.80;;;3.10;;
8086;SDS011;4086;54.412;9.980;2023-01-30T15:17:31;13.43;;;2.83;;
8086;SDS011;4086;54.412;9.980;2023-01-30T15:20:08;17.80;;;4.10;;
8086;SDS011;4086;54.412;9.980;2023-01-30T15:22:43;19.70;;;4.27;;
8086;SDS011;4086;54.412;9.980;2023-01-30T15:25:25;14.67;;;3.33;;
8086;SDS011;4086;54.412;9.980;2023-01-30T15:28:01;22.60;;;4.20;;
8086;SDS011;4086;54.412;9.980;2023-01-30T15:30:37;11.33;;;2.70;;
8086;SDS011;4086;54.412;9.980;2023-01-30T15:33:15;17.43;;;3.23;;
8086;SDS011;4086;54.412;9.980;2023-01-30T15:35:43;19.33;;;4.27;;
8086;SDS011;4086;54.412;9.980;2023-01-30T15:38:21;15.00;;;3.10;;
8086;SDS011;4086;54.412;9.980;2023-01-30T15:40:49;20.53;;;3.70;;
8086;SDS011;4086;54.412;9.980;2023-01-30T15:43:18;17.27;;;3.17;;
8086;SDS011;4086;54.412;9.980;2023-01-30T15:46:02;17.77;;;3.27;;
8086;SDS011;4086;54.412;9.980;2023-01-30T15:48:38;13.67;;;3.17;;